Time,TemperatureF,DewpointF,PressureIn,WindDirection,WindDirectionDegrees,WindSpeedMPH,WindSpeedGustMPH,Humidity,HourlyPrecipIn,Conditions,Clouds,dailyrainin,SoftwareType,DateUTC
2013-08-03 00:00:00,-999.0,-99.9,-100.00,North,-999,2.0,5.0,56,-99.99,,,-99.99,,2013-08-03 06:00:00,
2013-08-03 00:23:00,-999.0,-99.9,-100.00,North,-999,2.0,5.0,56,-99.99,,,-99.99,,2013-08-03 06:23:00,
2013-08-03 00:33:00,-999.0,-99.9,-100.00,North,-999,2.0,5.0,56,-99.99,,,-99.99,,2013-08-03 06:33:00,
2013-08-03 00:42:00,-999.0,-99.9,-100.00,North,-999,2.0,5.0,56,-99.99,,,-99.99,,2013-08-03 06:42:00,
2013-08-03 00:52:00,-999.0,-99.9,-100.00,North,-999,2.0,5.0,56,-99.99,,,-99.99,,2013-08-03 06:52:00,
2013-08-03 01:00:00,72.0,-99.9,-100.00,North,-999,1.0,3.0,68,-99.99,,,-99.99,,2013-08-03 07:00:00,
2013-08-03 01:22:00,-999.0,-99.9,-100.00,North,-999,1.0,3.0,68,-99.99,,,-99.99,,2013-08-03 07:22:00,
2013-08-03 01:43:00,72.0,-99.9,-100.00,North,-999,1.0,3.0,68,-99.99,,,-99.99,,2013-08-03 07:43:00,
2013-08-03 01:53:00,72.0,-99.9,-100.00,North,-999,1.0,3.0,68,-99.99,,,-99.99,,2013-08-03 07:53:00,
2013-08-03 02:00:00,72.0,-99.9,-100.00,North,-999,0.0,2.0,71,-99.99,,,-99.99,,2013-08-03 08:00:00,
2013-08-03 02:22:00,-999.0,-99.9,-100.00,North,-999,0.0,2.0,71,-99.99,,,-99.99,,2013-08-03 08:22:00,
2013-08-03 02:32:00,72.0,-99.9,-100.00,North,-999,0.0,2.0,71,-99.99,,,-99.99,,2013-08-03 08:32:00,
2013-08-03 02:43:00,72.0,-99.9,-100.00,North,-999,0.0,2.0,71,-99.99,,,-99.99,,2013-08-03 08:43:00,
2013-08-03 02:52:00,72.0,-99.9,-100.00,North,-999,0.0,2.0,71,-99.99,,,-99.99,,2013-08-03 08:52:00,
2013-08-03 03:00:00,70.0,-99.9,-100.00,North,-999,1.0,4.0,72,-99.99,,,-99.99,,2013-08-03 09:00:00,
2013-08-03 03:22:00,-999.0,-99.9,-100.00,North,-999,1.0,4.0,72,-99.99,,,-99.99,,2013-08-03 09:22:00,
2013-08-03 03:32:00,70.0,-99.9,-100.00,North,-999,1.0,4.0,72,-99.99,,,-99.99,,2013-08-03 09:32:00,
2013-08-03 03:43:00,70.0,-99.9,-100.00,North,-999,1.0,4.0,72,-99.99,,,-99.99,,2013-08-03 09:43:00,
2013-08-03 03:53:00,70.0,-99.9,-100.00,North,-999,1.0,4.0,72,-99.99,,,-99.99,,2013-08-03 09:53:00,
2013-08-03 04:00:00,68.0,-99.9,-100.00,North,-999,1.0,3.0,74,-99.99,,,-99.99,,2013-08-03 10:00:00,
2013-08-03 04:22:00,-999.0,-99.9,-100.00,North,-999,1.0,3.0,74,-99.99,,,-99.99,,2013-08-03 10:22:00,
2013-08-03 04:33:00,68.0,-99.9,-100.00,North,-999,1.0,3.0,74,-99.99,,,-99.99,,2013-08-03 10:33:00,
2013-08-03 04:42:00,68.0,-99.9,-100.00,North,-999,1.0,3.0,74,-99.99,,,-99.99,,2013-08-03 10:42:00,
2013-08-03 04:53:00,68.0,-99.9,-100.00,North,-999,1.0,3.0,74,-99.99,,,-99.99,,2013-08-03 10:53:00,
2013-08-03 05:00:00,67.0,-99.9,-100.00,North,-999,1.0,3.0,83,-99.99,,,-99.99,,2013-08-03 11:00:00,
2013-08-03 05:32:00,67.0,-99.9,-100.00,North,-999,1.0,3.0,83,-99.99,,,-99.99,,2013-08-03 11:32:00,
2013-08-03 05:43:00,67.0,-99.9,-100.00,North,-999,1.0,3.0,83,-99.99,,,-99.99,,2013-08-03 11:43:00,
2013-08-03 05:53:00,67.0,-99.9,-100.00,North,-999,1.0,3.0,83,-99.99,,,-99.99,,2013-08-03 11:53:00,
2013-08-03 06:00:00,68.0,-99.9,-100.00,North,-999,2.0,4.0,74,-99.99,,,-99.99,,2013-08-03 12:00:00,
2013-08-03 06:22:00,-999.0,-99.9,-100.00,North,-999,2.0,4.0,74,-99.99,,,-99.99,,2013-08-03 12:22:00,
2013-08-03 06:43:00,68.0,-99.9,-100.00,North,-999,2.0,4.0,74,-99.99,,,-99.99,,2013-08-03 12:43:00,
2013-08-03 06:53:00,68.0,-99.9,-100.00,North,-999,2.0,4.0,74,-99.99,,,-99.99,,2013-08-03 12:53:00,
2013-08-03 07:00:00,-999.0,-99.9,-100.00,North,-999,2.0,4.0,80,-99.99,,,-99.99,,2013-08-03 13:00:00,
2013-08-03 07:22:00,-999.0,-99.9,-100.00,North,-999,2.0,4.0,80,-99.99,,,-99.99,,2013-08-03 13:22:00,
2013-08-03 07:33:00,-999.0,-99.9,-100.00,North,-999,2.0,4.0,80,-99.99,,,-99.99,,2013-08-03 13:33:00,
2013-08-03 07:43:00,-999.0,-99.9,-100.00,North,-999,2.0,4.0,80,-99.99,,,-99.99,,2013-08-03 13:43:00,
2013-08-03 07:52:00,-999.0,-99.9,-100.00,North,-999,2.0,4.0,80,-99.99,,,-99.99,,2013-08-03 13:52:00,
2013-08-03 08:00:00,71.0,-99.9,-100.00,North,-999,1.0,4.0,71,-99.99,,,-99.99,,2013-08-03 14:00:00,
2013-08-03 08:22:00,-999.0,-99.9,-100.00,North,-999,1.0,4.0,71,-99.99,,,-99.99,,2013-08-03 14:22:00,
2013-08-03 08:33:00,71.0,-99.9,-100.00,North,-999,1.0,4.0,71,-99.99,,,-99.99,,2013-08-03 14:33:00,
2013-08-03 08:43:00,71.0,-99.9,-100.00,North,-999,1.0,4.0,71,-99.99,,,-99.99,,2013-08-03 14:43:00,
2013-08-03 08:52:00,71.0,-99.9,-100.00,North,-999,1.0,4.0,71,-99.99,,,-99.99,,2013-08-03 14:52:00,
2013-08-03 09:00:00,74.0,-99.9,-100.00,North,-999,3.0,7.0,62,-99.99,,,-99.99,,2013-08-03 15:00:00,
2013-08-03 09:23:00,-999.0,-99.9,-100.00,North,-999,3.0,7.0,62,-99.99,,,-99.99,,2013-08-03 15:23:00,
2013-08-03 09:32:00,74.0,-99.9,-100.00,North,-999,3.0,7.0,62,-99.99,,,-99.99,,2013-08-03 15:32:00,
2013-08-03 09:43:00,74.0,-99.9,-100.00,North,-999,3.0,7.0,62,-99.99,,,-99.99,,2013-08-03 15:43:00,
2013-08-03 09:53:00,74.0,-99.9,-100.00,North,-999,3.0,7.0,62,-99.99,,,-99.99,,2013-08-03 15:53:00,
2013-08-03 10:00:00,-999.0,-99.9,-100.00,North,-999,4.0,9.0,49,-99.99,,,-99.99,,2013-08-03 16:00:00,
2013-08-03 10:23:00,-999.0,-99.9,-100.00,North,-999,4.0,9.0,49,-99.99,,,-99.99,,2013-08-03 16:23:00,
2013-08-03 10:33:00,-999.0,-99.9,-100.00,North,-999,4.0,9.0,49,-99.99,,,-99.99,,2013-08-03 16:33:00,
2013-08-03 10:43:00,-999.0,-99.9,-100.00,North,-999,4.0,9.0,49,-99.99,,,-99.99,,2013-08-03 16:43:00,
2013-08-03 10:53:00,-999.0,-99.9,-100.00,North,-999,4.0,9.0,49,-99.99,,,-99.99,,2013-08-03 16:53:00,
2013-08-03 11:00:00,83.0,-99.9,-100.00,North,-999,4.0,8.0,41,-99.99,,,-99.99,,2013-08-03 17:00:00,
2013-08-03 11:33:00,83.0,-99.9,-100.00,North,-999,4.0,8.0,41,-99.99,,,-99.99,,2013-08-03 17:33:00,
2013-08-03 11:43:00,83.0,-99.9,-100.00,North,-999,4.0,8.0,41,-99.99,,,-99.99,,2013-08-03 17:43:00,
2013-08-03 11:52:00,83.0,-99.9,-100.00,North,-999,4.0,8.0,41,-99.99,,,-99.99,,2013-08-03 17:52:00,
2013-08-03 12:00:00,87.0,-99.9,-100.00,North,-999,3.0,7.0,35,-99.99,,,-99.99,,2013-08-03 18:00:00,
2013-08-03 12:22:00,-999.0,-99.9,-100.00,North,-999,3.0,7.0,35,-99.99,,,-99.99,,2013-08-03 18:22:00,
2013-08-03 12:32:00,87.0,-99.9,-100.00,North,-999,3.0,7.0,35,-99.99,,,-99.99,,2013-08-03 18:32:00,
2013-08-03 12:43:00,87.0,-99.9,-100.00,North,-999,3.0,7.0,35,-99.99,,,-99.99,,2013-08-03 18:43:00,
2013-08-03 12:53:00,87.0,-99.9,-100.00,North,-999,3.0,7.0,35,-99.99,,,-99.99,,2013-08-03 18:53:00,
2013-08-03 13:00:00,87.0,-99.9,-100.00,North,-999,3.0,10.0,30,-99.99,,,-99.99,,2013-08-03 19:00:00,
2013-08-03 13:22:00,-999.0,-99.9,-100.00,North,-999,3.0,10.0,30,-99.99,,,-99.99,,2013-08-03 19:22:00,
2013-08-03 13:33:00,87.0,-99.9,-100.00,North,-999,3.0,10.0,30,-99.99,,,-99.99,,2013-08-03 19:33:00,
2013-08-03 13:43:00,87.0,-99.9,-100.00,North,-999,3.0,10.0,30,-99.99,,,-99.99,,2013-08-03 19:43:00,
2013-08-03 13:53:00,87.0,-99.9,-100.00,North,-999,3.0,10.0,30,-99.99,,,-99.99,,2013-08-03 19:53:00,
2013-08-03 14:00:00,91.0,-99.9,-100.00,North,-999,4.0,10.0,26,-99.99,,,-99.99,,2013-08-03 20:00:00,
2013-08-03 14:22:00,-999.0,-99.9,-100.00,North,-999,4.0,10.0,26,-99.99,,,-99.99,,2013-08-03 20:22:00,
2013-08-03 14:32:00,91.0,-99.9,-100.00,North,-999,4.0,10.0,26,-99.99,,,-99.99,,2013-08-03 20:32:00,
2013-08-03 14:42:00,91.0,-99.9,-100.00,North,-999,4.0,10.0,26,-99.99,,,-99.99,,2013-08-03 20:42:00,
2013-08-03 14:52:00,91.0,-99.9,-100.00,North,-999,4.0,10.0,26,-99.99,,,-99.99,,2013-08-03 20:52:00,
2013-08-03 15:00:00,93.0,-99.9,-100.00,North,-999,4.0,10.0,25,-99.99,,,-99.99,,2013-08-03 21:00:00,
2013-08-03 15:22:00,-999.0,-99.9,-100.00,North,-999,4.0,10.0,25,-99.99,,,-99.99,,2013-08-03 21:22:00,
2013-08-03 15:42:00,93.0,-99.9,-100.00,North,-999,4.0,10.0,25,-99.99,,,-99.99,,2013-08-03 21:42:00,
2013-08-03 15:52:00,93.0,-99.9,-100.00,North,-999,4.0,10.0,25,-99.99,,,-99.99,,2013-08-03 21:52:00,
2013-08-03 16:00:00,94.0,-99.9,-100.00,North,-999,4.0,12.0,22,-99.99,,,-99.99,,2013-08-03 22:00:00,
2013-08-03 16:22:00,-999.0,-99.9,-100.00,North,-999,4.0,12.0,22,-99.99,,,-99.99,,2013-08-03 22:22:00,
2013-08-03 16:33:00,94.0,-99.9,-100.00,North,-999,4.0,12.0,22,-99.99,,,-99.99,,2013-08-03 22:33:00,
2013-08-03 16:43:00,94.0,-99.9,-100.00,North,-999,4.0,12.0,22,-99.99,,,-99.99,,2013-08-03 22:43:00,
2013-08-03 16:52:00,94.0,-99.9,-100.00,North,-999,4.0,12.0,22,-99.99,,,-99.99,,2013-08-03 22:52:00,
2013-08-03 17:00:00,95.0,-99.9,-100.00,North,-999,4.0,12.0,22,-99.99,,,-99.99,,2013-08-03 23:00:00,
2013-08-03 17:22:00,-999.0,-99.9,-100.00,North,-999,4.0,12.0,22,-99.99,,,-99.99,,2013-08-03 23:22:00,
2013-08-03 17:32:00,95.0,-99.9,-100.00,North,-999,4.0,12.0,22,-99.99,,,-99.99,,2013-08-03 23:32:00,
2013-08-03 17:43:00,95.0,-99.9,-100.00,North,-999,4.0,12.0,22,-99.99,,,-99.99,,2013-08-03 23:43:00,
2013-08-03 17:52:00,95.0,-99.9,-100.00,North,-999,4.0,12.0,22,-99.99,,,-99.99,,2013-08-03 23:52:00,
2013-08-03 18:00:00,93.0,-99.9,-100.00,North,-999,5.0,12.0,24,-99.99,,,-99.99,,2013-08-04 00:00:00,
2013-08-03 18:22:00,-999.0,-99.9,-100.00,North,-999,5.0,12.0,24,-99.99,,,-99.99,,2013-08-04 00:22:00,
2013-08-03 18:42:00,93.0,-99.9,-100.00,North,-999,5.0,12.0,24,-99.99,,,-99.99,,2013-08-04 00:42:00,
2013-08-03 18:53:00,93.0,-99.9,-100.00,North,-999,5.0,12.0,24,-99.99,,,-99.99,,2013-08-04 00:53:00,
2013-08-03 19:00:00,93.0,-99.9,-100.00,North,-999,3.0,7.0,22,-99.99,,,-99.99,,2013-08-04 01:00:00,
2013-08-03 19:22:00,-999.0,-99.9,-100.00,North,-999,3.0,7.0,22,-99.99,,,-99.99,,2013-08-04 01:22:00,
2013-08-03 19:32:00,93.0,-99.9,-100.00,North,-999,3.0,7.0,22,-99.99,,,-99.99,,2013-08-04 01:32:00,
2013-08-03 19:42:00,93.0,-99.9,-100.00,North,-999,3.0,7.0,22,-99.99,,,-99.99,,2013-08-04 01:42:00,
2013-08-03 19:53:00,93.0,-99.9,-100.00,North,-999,3.0,7.0,22,-99.99,,,-99.99,,2013-08-04 01:53:00,
2013-08-03 20:00:00,90.0,-99.9,-100.00,North,-999,5.0,10.0,23,-99.99,,,-99.99,,2013-08-04 02:00:00,
2013-08-03 20:22:00,-999.0,-99.9,-100.00,North,-999,5.0,10.0,23,-99.99,,,-99.99,,2013-08-04 02:22:00,
2013-08-03 20:32:00,90.0,-99.9,-100.00,North,-999,5.0,10.0,23,-99.99,,,-99.99,,2013-08-04 02:32:00,
2013-08-03 20:42:00,90.0,-99.9,-100.00,North,-999,5.0,10.0,23,-99.99,,,-99.99,,2013-08-04 02:42:00,
2013-08-03 20:52:00,90.0,-99.9,-100.00,North,-999,5.0,10.0,23,-99.99,,,-99.99,,2013-08-04 02:52:00,
2013-08-03 21:00:00,83.0,-99.9,-100.00,North,-999,1.0,4.0,35,-99.99,,,-99.99,,2013-08-04 03:00:00,
2013-08-03 21:22:00,-999.0,-99.9,-100.00,North,-999,1.0,4.0,35,-99.99,,,-99.99,,2013-08-04 03:22:00,
2013-08-03 22:00:00,80.0,-99.9,-100.00,North,-999,1.0,4.0,42,-99.99,,,-99.99,,2013-08-04 04:00:00,
2013-08-03 22:23:00,-999.0,-99.9,-100.00,North,-999,1.0,4.0,42,-99.99,,,-99.99,,2013-08-04 04:23:00,
2013-08-03 22:42:00,80.0,-99.9,-100.00,North,-999,1.0,4.0,42,-99.99,,,-99.99,,2013-08-04 04:42:00,
2013-08-03 22:52:00,80.0,-99.9,-100.00,North,-999,1.0,4.0,42,-99.99,,,-99.99,,2013-08-04 04:52:00,
2013-08-03 23:22:00,-999.0,-99.9,-100.00,North,-999,1.0,3.0,47,-99.99,,,-99.99,,2013-08-04 05:22:00,
2013-08-03 23:52:00,77.0,-99.9,-100.00,North,-999,1.0,3.0,47,-99.99,,,-99.99,,2013-08-04 05:52:00,